createdAt,value
2022-08-10T00:01:52.672Z,98114.97
2022-08-10T00:04:22.789Z,98114.91
2022-08-10T00:06:52.741Z,98118.88
2022-08-10T00:09:20.639Z,98115.47
2022-08-10T00:11:48.115Z,98118.81
2022-08-10T00:14:15.699Z,98114.97
2022-08-10T00:16:43.089Z,98112.97
2022-08-10T00:19:10.595Z,98114.53
2022-08-10T00:21:38.346Z,98113.88
2022-08-10T00:24:05.994Z,98115.22
2022-08-10T00:28:01.770Z,98121.84
2022-08-10T00:29:22.007Z,98123.81
2022-08-10T00:31:58.295Z,98132.09
2022-08-10T00:34:31.674Z,98131.66
2022-08-10T00:37:00.003Z,98130.13
2022-08-10T00:39:29.463Z,98134.41
2022-08-10T00:42:06.977Z,98127.38
2022-08-10T00:44:42.773Z,98135.75
2022-08-10T00:47:36.168Z,98141.66
2022-08-10T00:49:59.050Z,98131.38
2022-08-10T00:52:28.054Z,98136.34
2022-08-10T00:54:56.260Z,98136.13
2022-08-10T00:57:25.872Z,98137.69
2022-08-10T00:59:58.558Z,98138.44
2022-08-10T01:02:30.053Z,98143.72
2022-08-10T01:05:02.035Z,98137.50
2022-08-10T01:07:37.106Z,98157.88
2022-08-10T01:10:07.533Z,98152.03
2022-08-10T01:12:43.756Z,98146.47
2022-08-10T01:15:24.849Z,98153.00
2022-08-10T01:18:15.351Z,98149.94
2022-08-10T01:21:01.313Z,98147.09
2022-08-10T01:23:46.778Z,98148.19
2022-08-10T01:26:49.976Z,98153.63
2022-08-10T01:29:35.960Z,98153.63
2022-08-10T01:32:07.208Z,98154.78
2022-08-10T01:34:50.052Z,98164.69
2022-08-10T01:37:23.579Z,98164.22
2022-08-10T01:39:56.685Z,98170.13
2022-08-10T01:42:25.967Z,98173.78
2022-08-10T01:44:56.583Z,98170.59
2022-08-10T01:47:48.409Z,98175.09
2022-08-10T01:50:59.090Z,98167.97
2022-08-10T01:53:40.008Z,98169.13
2022-08-10T01:56:15.745Z,98171.00
2022-08-10T01:58:45.390Z,98174.84
2022-08-10T02:01:23.521Z,98173.66
2022-08-10T02:04:05.018Z,98171.34
2022-08-10T02:06:44.757Z,98161.38
2022-08-10T02:09:17.483Z,98165.69
2022-08-10T02:12:06.317Z,98165.38
2022-08-10T02:14:49.419Z,98170.00
2022-08-10T02:18:00.049Z,98170.16
2022-08-10T02:20:22.007Z,98140.94
2022-08-10T02:22:56.898Z,98162.78
2022-08-10T02:25:39.832Z,98158.63
2022-08-10T02:28:29.992Z,98160.19
2022-08-10T02:31:03.325Z,98166.34
2022-08-10T02:33:37.182Z,98165.69
2022-08-10T02:36:10.166Z,98168.28
2022-08-10T02:38:58.937Z,98164.91
2022-08-10T02:45:01.817Z,98154.56
2022-08-10T02:45:18.213Z,98162.34
2022-08-10T02:47:52.228Z,98165.88
2022-08-10T02:50:26.967Z,98165.88
2022-08-10T02:53:04.291Z,98165.66
2022-08-10T02:55:54.249Z,98166.25
2022-08-10T02:58:53.398Z,98168.16
2022-08-10T03:01:26.099Z,98164.91
2022-08-10T03:04:00.295Z,98171.50
2022-08-10T03:06:35.209Z,98168.00
2022-08-10T03:09:03.965Z,98169.41
2022-08-10T03:12:35.426Z,98171.41
2022-08-10T03:14:24.722Z,98175.19
2022-08-10T03:16:54.846Z,98165.84
2022-08-10T03:20:35.560Z,98176.19
2022-08-10T03:22:13.644Z,98167.25
2022-08-10T03:24:43.277Z,98169.81
2022-08-10T03:27:11.971Z,98165.69
2022-08-10T03:30:32.943Z,98160.44
2022-08-10T03:32:28.077Z,98155.06
2022-08-10T03:34:56.036Z,98162.34
2022-08-10T03:37:23.473Z,98158.25
2022-08-10T03:39:51.621Z,98164.81
2022-08-10T03:42:20.995Z,98168.44
2022-08-10T03:44:50.680Z,98165.84
2022-08-10T03:47:20.427Z,98167.38
2022-08-10T03:49:49.977Z,98170.78
2022-08-10T03:52:19.084Z,98171.81
2022-08-10T03:54:47.125Z,98173.13
2022-08-10T03:57:14.860Z,98176.38
2022-08-10T03:59:42.582Z,98175.94
2022-08-10T04:02:44.577Z,98177.78
2022-08-10T04:04:57.811Z,98176.28
2022-08-10T04:07:25.606Z,98173.13
2022-08-10T04:09:58.969Z,98169.19
2022-08-10T04:12:26.654Z,98176.56
2022-08-10T04:14:54.272Z,98167.72
2022-08-10T04:18:03.443Z,98177.34
2022-08-10T04:20:20.001Z,98177.41
2022-08-10T04:22:52.033Z,98178.78
2022-08-10T04:25:21.657Z,98174.88
2022-08-10T04:27:50.208Z,98162.97
2022-08-10T04:30:18.113Z,98158.97
2022-08-10T04:32:49.164Z,98177.78
2022-08-10T04:35:20.679Z,98176.78
2022-08-10T04:37:50.449Z,98173.53
2022-08-10T04:40:28.445Z,98177.63
2022-08-10T04:43:11.305Z,98175.47
2022-08-10T04:45:47.367Z,98171.72
2022-08-10T04:48:42.020Z,98179.19
2022-08-10T04:51:10.770Z,98174.59
2022-08-10T04:54:04.306Z,98175.34
2022-08-10T04:56:31.714Z,98173.09
2022-08-10T04:59:00.967Z,98182.72
2022-08-10T05:01:37.634Z,98173.03
2022-08-10T05:04:36.160Z,98162.19
2022-08-10T05:07:16.708Z,98187.25
2022-08-10T05:10:03.491Z,98182.47
2022-08-10T05:12:39.055Z,98181.75
2022-08-10T05:15:12.521Z,98187.19
2022-08-10T05:17:43.509Z,98179.03
2022-08-10T05:20:29.531Z,98167.56
2022-08-10T05:22:56.977Z,98167.88
2022-08-10T05:25:24.456Z,98160.34
2022-08-10T05:27:52.544Z,98160.88
2022-08-10T05:30:22.157Z,98166.94
2022-08-10T05:32:59.094Z,98161.94
2022-08-10T05:35:51.816Z,98163.94
2022-08-10T05:38:20.673Z,98165.56
2022-08-10T05:40:49.550Z,98176.19
2022-08-10T05:43:18.870Z,98165.22
2022-08-10T05:46:17.683Z,98162.56
2022-08-10T05:48:54.830Z,98178.47
2022-08-10T05:51:25.623Z,98159.34
2022-08-10T05:54:01.257Z,98164.97
2022-08-10T05:56:56.843Z,98159.31
2022-08-10T06:00:11.301Z,98165.16
2022-08-10T06:02:35.674Z,98168.13
2022-08-10T06:05:05.293Z,98169.50
2022-08-10T06:07:33.610Z,98154.25
2022-08-10T06:10:02.787Z,98164.16
2022-08-10T06:12:53.540Z,98169.34
2022-08-10T06:15:45.650Z,98158.03
2022-08-10T06:18:10.256Z,98160.94
2022-08-10T06:20:38.644Z,98150.94
2022-08-10T06:23:06.938Z,98145.34
2022-08-10T06:28:23.585Z,98146.44
2022-08-10T06:30:54.045Z,98152.97
2022-08-10T06:33:23.862Z,98160.59
2022-08-10T06:35:54.173Z,98162.88
2022-08-10T06:38:25.407Z,98152.69
2022-08-10T06:40:57.288Z,98154.09
2022-08-10T06:43:27.230Z,98154.59
2022-08-10T06:46:17.819Z,98156.69
2022-08-10T06:48:51.090Z,98146.34
2022-08-10T06:51:24.769Z,98142.72
2022-08-10T06:53:56.698Z,98147.09
2022-08-10T06:56:37.668Z,98150.94
2022-08-10T06:59:21.702Z,98136.38
2022-08-10T07:02:20.999Z,98140.53
2022-08-10T07:05:06.823Z,98140.91
2022-08-10T07:07:39.125Z,98134.91
2022-08-10T07:10:09.309Z,98133.03
2022-08-10T07:12:39.255Z,98123.16
2022-08-10T07:15:09.263Z,98122.75
2022-08-10T07:17:39.700Z,98121.03
2022-08-10T07:20:10.290Z,98124.63
2022-08-10T07:23:27.059Z,98123.13
2022-08-10T07:25:28.913Z,98121.13
2022-08-10T07:28:01.522Z,98117.88
2022-08-10T07:30:33.421Z,98121.91
2022-08-10T07:33:02.173Z,98112.72
2022-08-10T07:35:43.079Z,98112.25
2022-08-10T07:38:18.261Z,98122.06
2022-08-10T07:40:48.904Z,98127.13
2022-08-10T07:43:19.458Z,98123.78
2022-08-10T07:45:48.000Z,98121.03
2022-08-10T07:48:19.111Z,98124.38
2022-08-10T07:50:48.433Z,98119.00
2022-08-10T07:53:21.777Z,98119.88
2022-08-10T07:56:03.751Z,98116.31
2022-08-10T07:58:40.134Z,98122.03
2022-08-10T08:01:16.664Z,98112.00
2022-08-10T08:04:04.917Z,98113.44
2022-08-10T08:06:37.682Z,98111.81
2022-08-10T08:09:05.964Z,98110.94
2022-08-10T08:11:34.155Z,98104.91
2022-08-10T08:14:04.404Z,98100.94
2022-08-10T08:16:34.123Z,98104.84
2022-08-10T08:19:28.247Z,98098.97
2022-08-10T08:24:09.714Z,98095.75
2022-08-10T08:24:42.576Z,98086.28
2022-08-10T08:27:12.870Z,98091.50
2022-08-10T08:29:43.698Z,98090.78
2022-08-10T08:32:12.866Z,98089.28
2022-08-10T08:34:43.781Z,98093.75
2022-08-10T08:38:30.266Z,98085.72
2022-08-10T08:40:05.679Z,98087.66
2022-08-10T08:42:57.917Z,98079.72
2022-08-10T08:46:00.619Z,98079.94
2022-08-10T08:48:46.941Z,98066.47
2022-08-10T08:52:09.696Z,98077.78
2022-08-10T08:54:39.487Z,98070.22
2022-08-10T08:57:46.376Z,98075.16
2022-08-10T09:00:19.980Z,98069.25
2022-08-10T09:03:28.114Z,98063.31
2022-08-10T09:06:33.290Z,98060.56
2022-08-10T09:09:12.616Z,98057.81
2022-08-10T09:12:04.383Z,98050.28
2022-08-10T09:14:44.840Z,98057.19
2022-08-10T09:17:31.782Z,98053.22
2022-08-10T09:20:20.509Z,98047.66
2022-08-10T09:22:58.052Z,98051.06
2022-08-10T09:25:28.685Z,98039.25
2022-08-10T09:28:22.614Z,98044.88
2022-08-10T09:31:21.970Z,98041.50
2022-08-10T09:36:25.984Z,98041.88
2022-08-10T09:37:42.640Z,98027.53
2022-08-10T09:40:59.008Z,98035.94
2022-08-10T09:43:26.811Z,98028.94
2022-08-10T09:46:13.141Z,98030.69
2022-08-10T09:49:22.444Z,98024.91
2022-08-10T09:52:15.312Z,98024.69
2022-08-10T09:55:00.693Z,98016.06
2022-08-10T09:57:57.123Z,98021.81
2022-08-10T10:00:35.106Z,98020.78
2022-08-10T10:03:06.753Z,98021.22
2022-08-10T10:05:51.416Z,98018.63
2022-08-10T10:08:32.824Z,98014.13
2022-08-10T10:11:07.249Z,98016.13
2022-08-10T10:14:12.299Z,98017.56
2022-08-10T10:16:42.794Z,98013.72
2022-08-10T10:19:20.895Z,98009.63
2022-08-10T10:22:26.463Z,98009.41
2022-08-10T10:25:19.578Z,98014.88
2022-08-10T10:28:09.815Z,98012.44
2022-08-10T10:31:04.412Z,98016.84
2022-08-10T10:33:54.818Z,98017.31
2022-08-10T10:36:23.634Z,98005.44
2022-08-10T10:38:52.445Z,98009.34
2022-08-10T10:41:22.686Z,98005.28
2022-08-10T10:44:08.053Z,98013.91
2022-08-10T10:46:56.973Z,98007.13
2022-08-10T10:49:53.961Z,98008.09
2022-08-10T10:52:40.013Z,97991.09
2022-08-10T10:55:20.107Z,98003.00
2022-08-10T10:57:58.491Z,98002.88
2022-08-10T11:01:12.855Z,97998.19
2022-08-10T11:03:58.198Z,97990.63
2022-08-10T11:06:55.286Z,97986.84
2022-08-10T11:10:05.131Z,97988.28
2022-08-10T11:13:03.010Z,97986.34
2022-08-10T11:16:05.375Z,97974.44
2022-08-10T11:18:34.090Z,97963.38
2022-08-10T11:21:14.149Z,97968.47
2022-08-10T11:24:47.415Z,97963.16
2022-08-10T11:27:08.739Z,97961.84
2022-08-10T11:30:01.327Z,97956.13
2022-08-10T11:33:06.573Z,97963.38
2022-08-10T11:35:42.015Z,97946.59
2022-08-10T11:38:43.026Z,97957.75
2022-08-10T11:42:07.948Z,97964.81
2022-08-10T11:44:37.075Z,97961.47
2022-08-10T11:47:23.717Z,97967.22
2022-08-10T11:50:17.856Z,97954.34
2022-08-10T11:53:20.041Z,97963.44
2022-08-10T11:55:54.909Z,97955.19
2022-08-10T11:58:43.788Z,97959.78
2022-08-10T12:01:15.866Z,97962.50
2022-08-10T12:03:46.302Z,97960.69
2022-08-10T12:06:33.740Z,97954.75
2022-08-10T12:10:09.636Z,97948.22
2022-08-10T12:11:59.346Z,97960.69
2022-08-10T12:14:35.066Z,97953.47
2022-08-10T12:17:16.259Z,97954.47
2022-08-10T12:20:05.669Z,97947.72
2022-08-10T12:22:57.482Z,97958.44
2022-08-10T12:25:55.934Z,97950.19
2022-08-10T12:28:33.222Z,97959.03
2022-08-10T12:31:13.839Z,97946.88
2022-08-10T12:34:01.799Z,97957.28
2022-08-10T12:36:42.286Z,97938.59
2022-08-10T12:39:14.330Z,97946.63
2022-08-10T12:42:06.818Z,97945.38
2022-08-10T12:44:48.976Z,97948.06
2022-08-10T12:47:45.216Z,97944.25
2022-08-10T12:50:33.437Z,97933.94
2022-08-10T12:53:26.190Z,97947.06
2022-08-10T12:55:54.318Z,97940.09
2022-08-10T12:58:59.956Z,97952.84
2022-08-10T13:01:16.448Z,97948.53
2022-08-10T13:04:22.592Z,97953.03
2022-08-10T13:06:46.567Z,97945.19
2022-08-10T13:09:15.257Z,97948.38
2022-08-10T13:12:44.676Z,97957.47
2022-08-10T13:14:49.129Z,97960.56
2022-08-10T13:17:47.473Z,97954.50
2022-08-10T13:20:25.975Z,97961.09
2022-08-10T13:22:58.483Z,97956.06
2022-08-10T13:25:32.697Z,97958.63
2022-08-10T13:28:37.592Z,97951.75
2022-08-10T13:30:58.142Z,97951.28
2022-08-10T13:34:39.726Z,97949.03
2022-08-10T13:36:22.887Z,97952.09
2022-08-10T13:38:52.423Z,97953.66
2022-08-10T13:41:20.697Z,97952.44
2022-08-10T13:43:57.489Z,97947.06
2022-08-10T13:46:25.741Z,97948.41
2022-08-10T13:48:54.847Z,97961.88
2022-08-10T13:51:57.540Z,97961.09
2022-08-10T13:54:16.850Z,97960.38
2022-08-10T13:56:47.333Z,97950.47
2022-08-10T13:59:16.680Z,97956.06
2022-08-10T14:01:53.202Z,97950.69
2022-08-10T14:04:21.080Z,97958.59
2022-08-10T14:06:59.521Z,97950.44
2022-08-10T14:09:33.246Z,97963.41
2022-08-10T14:12:02.065Z,97963.94
2022-08-10T14:14:31.365Z,97956.81
2022-08-10T14:17:01.063Z,97952.25
2022-08-10T14:19:31.979Z,97959.91
2022-08-10T14:22:00.717Z,97956.59
2022-08-10T14:24:30.666Z,97961.69
2022-08-10T14:27:10.774Z,97965.72
2022-08-10T14:29:53.976Z,97959.09
2022-08-10T14:32:26.259Z,97956.34
2022-08-10T14:36:18.536Z,97951.97
2022-08-10T14:37:56.104Z,97953.28
2022-08-10T14:40:34.041Z,97945.66
2022-08-10T14:43:06.897Z,97955.78
2022-08-10T14:45:38.194Z,97955.81
2022-08-10T14:48:23.606Z,97963.69
2022-08-10T14:51:01.331Z,97954.78
2022-08-10T14:53:34.864Z,97961.38
2022-08-10T14:56:14.133Z,97954.28
2022-08-10T14:59:05.534Z,97960.13
2022-08-10T15:02:38.422Z,97963.13
2022-08-10T15:04:28.865Z,97960.34
2022-08-10T15:07:02.431Z,97963.13
2022-08-10T15:10:01.136Z,97967.16
2022-08-10T15:12:35.954Z,97959.81
2022-08-10T15:15:06.569Z,97954.69
2022-08-10T15:17:39.799Z,97956.44
2022-08-10T15:20:20.659Z,97956.41
2022-08-10T15:22:52.410Z,97969.59
2022-08-10T15:25:24.481Z,97956.31
2022-08-10T15:28:06.599Z,97973.66
2022-08-10T15:30:48.513Z,97982.22
2022-08-10T15:34:02.206Z,97971.25
2022-08-10T15:37:02.439Z,97972.94
2022-08-10T15:40:21.894Z,97977.19
2022-08-10T15:42:55.718Z,97985.41
2022-08-10T15:45:26.423Z,97985.72
2022-08-10T15:48:03.190Z,97991.50
2022-08-10T15:50:31.351Z,97974.75
2022-08-10T15:53:04.142Z,97987.44
2022-08-10T15:55:42.589Z,97988.19
2022-08-10T15:58:38.867Z,97996.53
2022-08-10T16:02:14.621Z,97995.00
2022-08-10T16:04:20.487Z,98012.63
2022-08-10T16:07:06.411Z,98012.75
2022-08-10T16:10:22.015Z,98007.94
2022-08-10T16:12:42.456Z,98011.41
2022-08-10T16:15:18.214Z,98024.66
2022-08-10T16:18:09.335Z,98015.44
2022-08-10T16:20:55.132Z,98013.41
2022-08-10T16:23:31.259Z,98016.25
2022-08-10T16:26:13.262Z,98009.28
2022-08-10T16:28:46.952Z,98011.06
2022-08-10T16:31:19.654Z,98004.03
2022-08-10T16:33:55.102Z,98002.72
2022-08-10T16:36:37.540Z,97996.47
2022-08-10T16:39:05.771Z,97989.91
2022-08-10T16:42:03.096Z,97989.72
2022-08-10T16:44:29.994Z,97985.53
2022-08-10T16:47:00.736Z,97963.09
2022-08-10T16:49:36.437Z,97978.66
2022-08-10T16:52:06.186Z,97971.78
2022-08-10T16:54:36.140Z,97976.81
2022-08-10T16:57:05.969Z,97975.88
2022-08-10T16:59:38.654Z,97976.38
2022-08-10T17:02:08.340Z,97973.47
2022-08-10T17:04:41.660Z,97975.00
2022-08-10T17:07:14.918Z,97981.41
2022-08-10T17:09:49.675Z,97974.72
2022-08-10T17:12:24.133Z,97977.97
2022-08-10T17:15:10.346Z,97969.28
2022-08-10T17:17:44.919Z,97968.28
2022-08-10T17:20:30.563Z,97967.91
2022-08-10T17:23:05.338Z,97965.94
2022-08-10T17:25:46.020Z,97952.38
2022-08-10T17:28:33.145Z,97955.69
2022-08-10T17:31:24.263Z,97949.44
2022-08-10T17:34:21.492Z,97947.34
2022-08-10T17:36:56.390Z,97949.72
2022-08-10T17:39:31.439Z,97938.63
2022-08-10T17:42:01.568Z,97936.72
2022-08-10T17:44:35.186Z,97942.03
2022-08-10T17:47:11.098Z,97938.09
2022-08-10T17:49:40.274Z,97939.22
2022-08-10T17:52:11.300Z,97946.41
2022-08-10T17:54:45.577Z,97942.16
2022-08-10T17:57:20.293Z,97934.97
2022-08-10T17:59:50.200Z,97939.00
2022-08-10T18:02:24.288Z,97937.38
2022-08-10T18:04:59.034Z,97943.00
2022-08-10T18:07:45.829Z,97942.16
2022-08-10T18:10:18.239Z,97941.88
2022-08-10T18:12:49.261Z,97951.50
2022-08-10T18:15:22.478Z,97958.00
2022-08-10T18:17:55.555Z,97953.66
2022-08-10T18:20:31.069Z,97958.56
2022-08-10T18:22:59.786Z,97958.06
2022-08-10T18:25:47.642Z,97968.03
2022-08-10T18:28:19.586Z,97959.34
2022-08-10T18:30:52.333Z,97955.97
2022-08-10T18:33:26.550Z,97958.97
2022-08-10T18:35:56.617Z,97951.66
2022-08-10T18:38:26.294Z,97962.44
2022-08-10T18:40:59.755Z,97959.63
2022-08-10T18:44:05.752Z,97963.63
2022-08-10T18:46:34.467Z,97964.38
2022-08-10T18:49:09.004Z,97958.09
2022-08-10T18:51:46.924Z,97965.34
2022-08-10T18:54:39.797Z,97960.19
2022-08-10T18:57:24.903Z,97960.19
2022-08-10T19:00:08.359Z,97949.78
2022-08-10T19:03:07.451Z,97968.13
2022-08-10T19:06:07.241Z,97972.94
2022-08-10T19:08:34.631Z,97959.44
2022-08-10T19:11:10.565Z,97970.25
2022-08-10T19:14:01.699Z,97945.25
2022-08-10T19:16:56.717Z,97957.91
2022-08-10T19:20:05.822Z,97951.13
2022-08-10T19:22:47.210Z,97958.84
2022-08-10T19:26:42.130Z,97955.25
2022-08-10T19:28:22.333Z,97946.03
2022-08-10T19:31:15.153Z,97952.00
2022-08-10T19:34:11.610Z,97940.88
2022-08-10T19:37:05.916Z,97948.41
2022-08-10T19:39:51.080Z,97941.94
2022-08-10T19:43:09.334Z,97940.53
2022-08-10T19:46:00.721Z,97939.19
2022-08-10T19:48:49.321Z,97933.34
2022-08-10T19:51:38.471Z,97931.22
2022-08-10T19:54:14.842Z,97927.38
2022-08-10T19:57:01.044Z,97921.84
2022-08-10T20:00:16.196Z,97922.59
2022-08-10T20:02:58.644Z,97926.00
2022-08-10T20:05:34.057Z,97918.91
2022-08-10T20:08:27.702Z,97919.53
2022-08-10T20:11:09.782Z,97912.00
2022-08-10T20:14:38.329Z,97909.84
2022-08-10T20:17:16.427Z,97917.06
2022-08-10T20:19:56.361Z,97911.06
2022-08-10T20:22:28.998Z,97907.84
2022-08-10T20:25:25.034Z,97903.09
2022-08-10T20:28:13.635Z,97906.94
2022-08-10T20:30:51.057Z,97900.78
2022-08-10T20:33:28.449Z,97903.38
2022-08-10T20:36:01.975Z,97897.72
2022-08-10T20:38:50.730Z,97896.03
2022-08-10T20:41:24.178Z,97892.50
2022-08-10T20:44:34.662Z,97894.00
2022-08-10T20:47:23.937Z,97885.53
2022-08-10T20:50:22.812Z,97899.84
2022-08-10T20:52:52.515Z,97901.56
2022-08-10T20:55:24.183Z,97897.88
2022-08-10T20:58:25.473Z,97901.22
2022-08-10T21:01:06.558Z,97901.38
2022-08-10T21:04:00.535Z,97898.78
2022-08-10T21:06:43.793Z,97895.25
2022-08-10T21:09:21.826Z,97901.91
2022-08-10T21:12:15.636Z,97900.75
2022-08-10T21:15:05.490Z,97896.94
2022-08-10T21:17:51.899Z,97891.72
2022-08-10T21:20:54.043Z,97898.03
2022-08-10T21:23:30.401Z,97900.03
2022-08-10T21:26:29.758Z,97894.06
2022-08-10T21:29:22.732Z,97902.63
2022-08-10T21:32:24.957Z,97908.34
2022-08-10T21:35:20.319Z,97898.97
2022-08-10T21:38:19.519Z,97912.94
2022-08-10T21:41:57.025Z,97898.66
2022-08-10T21:44:53.043Z,97905.28
2022-08-10T21:48:30.223Z,97902.06
2022-08-10T21:55:15.197Z,97899.91
2022-08-10T21:58:16.243Z,97902.03
2022-08-10T22:01:15.333Z,97900.53
2022-08-10T22:04:02.564Z,97891.13
2022-08-10T22:06:54.522Z,97905.56
2022-08-10T22:09:48.891Z,97898.66
2022-08-10T22:12:40.272Z,97902.97
2022-08-10T22:16:03.122Z,97899.41
2022-08-10T22:18:53.816Z,97891.72
2022-08-10T22:22:19.926Z,97894.06
2022-08-10T22:25:29.054Z,97900.75
2022-08-10T22:28:17.920Z,97890.63
2022-08-10T22:31:27.192Z,97897.28
2022-08-10T22:31:32.177Z,97896.63
2022-08-10T22:34:56.867Z,97894.78
2022-08-10T22:37:48.907Z,97886.00
2022-08-10T22:40:39.368Z,97875.56
2022-08-10T22:43:36.209Z,97873.84
2022-08-10T22:46:29.403Z,97887.38
2022-08-10T22:49:00.621Z,97870.66
2022-08-10T22:51:47.828Z,97875.91
2022-08-10T22:54:51.583Z,97874.66
2022-08-10T22:57:38.212Z,97866.81
2022-08-10T23:00:18.081Z,97865.16
2022-08-10T23:03:02.951Z,97863.47
2022-08-10T23:05:38.320Z,97867.31
2022-08-10T23:08:30.838Z,97866.91
2022-08-10T23:11:06.748Z,97865.63
2022-08-10T23:13:39.262Z,97869.44
2022-08-10T23:16:34.278Z,97866.22
2022-08-10T23:19:20.912Z,97873.63
2022-08-10T23:22:02.956Z,97865.75
2022-08-10T23:24:47.774Z,97878.00
2022-08-10T23:27:38.475Z,97861.31
2022-08-10T23:30:17.065Z,97869.78
2022-08-10T23:32:59.151Z,97871.28
2022-08-10T23:36:30.006Z,97863.88
2022-08-10T23:38:24.169Z,97864.53
2022-08-10T23:40:58.230Z,97867.00
2022-08-10T23:43:53.380Z,97875.53
2022-08-10T23:46:24.573Z,97872.19
2022-08-10T23:48:55.047Z,97875.03
2022-08-10T23:51:38.936Z,97872.78
2022-08-10T23:54:22.376Z,97868.56
2022-08-10T23:57:00.689Z,97875.97
2022-08-10T23:59:32.145Z,97871.47
